createdAt,value
2018-09-13T00:01:02.515Z,24.81
2018-09-13T00:06:05.798Z,24.80
2018-09-13T00:11:09.099Z,24.78
2018-09-13T00:16:12.382Z,24.77
2018-09-13T00:21:15.898Z,24.77
2018-09-13T00:26:19.170Z,24.76
2018-09-13T00:31:22.463Z,24.75
2018-09-13T00:36:25.745Z,24.75
2018-09-13T00:41:29.073Z,24.75
2018-09-13T00:46:32.459Z,24.72
2018-09-13T00:51:35.734Z,24.72
2018-09-13T00:56:39.030Z,24.67
2018-09-13T01:01:42.310Z,24.67
2018-09-13T01:06:45.590Z,24.66
2018-09-13T01:11:48.862Z,24.66
2018-09-13T01:16:52.143Z,24.65
2018-09-13T01:21:55.430Z,24.63
2018-09-13T01:26:58.709Z,24.65
2018-09-13T01:32:01.999Z,24.63
2018-09-13T01:37:05.279Z,24.60
2018-09-13T01:42:08.555Z,24.62
2018-09-13T01:47:11.858Z,24.60
2018-09-13T01:52:15.140Z,24.58
2018-09-13T01:57:18.417Z,24.57
2018-09-13T02:02:21.718Z,24.58
2018-09-13T02:07:24.989Z,24.55
2018-09-13T02:12:28.274Z,24.49
2018-09-13T02:17:31.546Z,24.52
2018-09-13T02:22:34.818Z,24.52
2018-09-13T02:27:38.114Z,24.49
2018-09-13T02:32:42.055Z,24.50
2018-09-13T02:37:45.386Z,24.52
2018-09-13T02:42:48.676Z,24.53
2018-09-13T02:47:51.958Z,24.51
2018-09-13T02:52:55.235Z,24.51
2018-09-13T02:57:58.518Z,24.49
2018-09-13T03:03:01.807Z,24.52
2018-09-13T03:08:05.120Z,24.52
2018-09-13T03:13:08.722Z,24.50
2018-09-13T03:18:12.002Z,24.47
2018-09-13T03:23:15.342Z,24.49
2018-09-13T03:28:18.630Z,24.49
2018-09-13T03:33:21.905Z,24.51
2018-09-13T03:38:25.194Z,24.44
2018-09-13T03:43:28.687Z,24.43
2018-09-13T03:48:31.977Z,24.43
2018-09-13T03:53:35.257Z,24.37
2018-09-13T03:58:38.614Z,24.40
2018-09-13T04:03:41.918Z,24.35
2018-09-13T04:08:45.219Z,24.35
2018-09-13T04:13:48.903Z,24.37
2018-09-13T04:18:52.349Z,24.34
2018-09-13T04:23:55.573Z,24.32
2018-09-13T04:28:58.855Z,24.32
2018-09-13T04:34:02.135Z,24.33
2018-09-13T04:39:07.770Z,24.31
2018-09-13T04:44:11.045Z,24.27
2018-09-13T04:49:14.443Z,24.26
2018-09-13T04:54:17.739Z,24.28
2018-09-13T04:59:21.034Z,24.30
2018-09-13T05:04:24.318Z,24.27
2018-09-13T05:09:27.602Z,24.26
2018-09-13T05:14:30.898Z,24.24
2018-09-13T05:19:34.166Z,24.25
2018-09-13T05:24:38.146Z,24.27
2018-09-13T05:29:41.651Z,24.23
2018-09-13T05:34:44.944Z,24.23
2018-09-13T05:39:48.310Z,24.21
2018-09-13T05:44:51.598Z,24.22
2018-09-13T05:49:54.878Z,24.25
2018-09-13T05:54:58.158Z,24.22
2018-09-13T06:00:01.447Z,24.15
2018-09-13T06:05:05.474Z,24.21
2018-09-13T06:10:08.773Z,24.16
2018-09-13T06:15:12.102Z,24.14
2018-09-13T06:20:15.382Z,24.16
2018-09-13T06:25:18.667Z,24.15
2018-09-13T06:30:21.946Z,24.15
2018-09-13T06:35:25.219Z,24.04
2018-09-13T06:40:28.497Z,24.05
2018-09-13T06:45:31.767Z,24.10
2018-09-13T06:50:35.044Z,24.05
2018-09-13T06:55:38.319Z,23.77
2018-09-13T07:00:41.594Z,22.65
2018-09-13T07:05:44.870Z,22.82
2018-09-13T07:10:48.193Z,22.28
2018-09-13T07:15:51.581Z,22.31
2018-09-13T07:20:54.860Z,21.95
2018-09-13T07:25:58.142Z,22.00
2018-09-13T07:31:01.505Z,21.59
2018-09-13T07:36:04.734Z,21.52
2018-09-13T07:41:08.014Z,21.61
2018-09-13T07:46:11.386Z,21.40
2018-09-13T07:51:14.711Z,21.47
2018-09-13T07:56:18.058Z,21.60
2018-09-13T08:01:21.337Z,21.45
2018-09-13T08:06:24.619Z,21.42
2018-09-13T08:11:28.086Z,21.85
2018-09-13T08:16:31.373Z,22.19
2018-09-13T08:21:34.696Z,22.38
2018-09-13T08:26:37.966Z,22.52
2018-09-13T08:31:41.255Z,22.57
2018-09-13T08:36:44.531Z,22.67
2018-09-13T08:41:47.802Z,22.75
2018-09-13T08:46:51.086Z,22.84
2018-09-13T08:51:54.424Z,22.87
2018-09-13T08:56:57.673Z,22.93
2018-09-13T09:02:01.070Z,23.01
2018-09-13T09:07:04.361Z,23.07
2018-09-13T09:12:07.661Z,23.13
2018-09-13T09:17:10.951Z,23.19
2018-09-13T09:22:14.234Z,23.24
2018-09-13T09:27:17.655Z,23.26
2018-09-13T09:32:20.932Z,23.34
2018-09-13T09:37:24.271Z,23.39
2018-09-13T09:42:27.562Z,23.43
2018-09-13T09:47:30.842Z,23.49
2018-09-13T09:52:34.122Z,23.54
2018-09-13T09:57:37.415Z,23.60
2018-09-13T10:02:40.703Z,23.63
2018-09-13T10:07:43.974Z,23.67
2018-09-13T10:12:47.271Z,23.71
2018-09-13T10:17:55.847Z,23.75
2018-09-13T10:23:04.406Z,23.78
2018-09-13T10:28:12.973Z,23.81
2018-09-13T10:33:21.618Z,23.84
2018-09-13T10:38:30.377Z,23.86
2018-09-13T10:43:39.015Z,23.87
2018-09-13T10:48:47.770Z,23.86
2018-09-13T10:53:56.216Z,23.90
2018-09-13T10:58:59.590Z,23.95
2018-09-13T11:04:02.923Z,23.94
2018-09-13T11:09:06.787Z,23.98
2018-09-13T11:14:22.806Z,23.99
2018-09-13T11:19:26.135Z,24.03
2018-09-13T11:24:29.520Z,24.03
2018-09-13T11:29:32.778Z,24.03
2018-09-13T11:34:36.123Z,24.07
2018-09-13T11:39:39.456Z,24.10
2018-09-13T11:44:42.818Z,24.04
2018-09-13T11:49:46.142Z,24.13
2018-09-13T11:54:49.457Z,24.13
2018-09-13T11:59:52.789Z,24.14
2018-09-13T12:04:56.163Z,24.15
2018-09-13T12:09:59.555Z,24.15
2018-09-13T12:15:03.138Z,24.17
2018-09-13T12:20:07.109Z,24.21
2018-09-13T12:25:10.406Z,24.21
2018-09-13T12:30:13.726Z,24.23
2018-09-13T12:35:17.048Z,24.24
2018-09-13T12:40:20.366Z,24.26
2018-09-13T12:45:23.678Z,24.26
2018-09-13T12:50:27.017Z,24.26
2018-09-13T12:55:35.626Z,24.25
2018-09-13T13:00:38.959Z,24.28
2018-09-13T13:05:42.258Z,24.29
2018-09-13T13:10:45.614Z,24.28
2018-09-13T13:15:48.919Z,24.26
2018-09-13T13:20:52.239Z,24.08
2018-09-13T13:25:55.553Z,24.19
2018-09-13T13:30:58.854Z,24.21
2018-09-13T13:36:02.153Z,24.24
2018-09-13T13:41:05.546Z,24.27
2018-09-13T13:46:08.851Z,24.30
2018-09-13T13:51:12.206Z,24.29
2018-09-13T13:56:15.511Z,24.29
2018-09-13T14:01:32.638Z,24.29
2018-09-13T14:06:35.971Z,24.33
2018-09-13T14:11:39.446Z,24.30
2018-09-13T14:16:43.703Z,24.32
2018-09-13T14:21:47.074Z,24.31
2018-09-13T14:26:50.453Z,24.29
2018-09-13T14:31:54.007Z,24.33
2018-09-13T14:36:57.318Z,24.28
2018-09-13T14:42:00.635Z,24.38
2018-09-13T14:47:23.305Z,24.31
2018-09-13T14:52:26.631Z,24.34
2018-09-13T14:57:29.949Z,24.27
2018-09-13T15:02:33.250Z,24.31
2018-09-13T15:07:36.558Z,24.02
2018-09-13T15:12:40.305Z,24.22
2018-09-13T15:17:43.617Z,24.00
2018-09-13T15:22:46.934Z,23.72
2018-09-13T15:27:50.254Z,23.73
2018-09-13T15:32:53.566Z,23.81
2018-09-13T15:37:56.919Z,23.87
2018-09-13T15:43:00.235Z,23.75
2018-09-13T15:48:03.546Z,23.79
2018-09-13T15:53:06.864Z,24.16
2018-09-13T15:58:16.093Z,24.41
2018-09-13T16:03:19.391Z,24.58
2018-09-13T16:08:22.748Z,24.65
2018-09-13T16:13:26.117Z,24.68
2018-09-13T16:18:29.429Z,24.75
2018-09-13T16:23:32.742Z,24.78
2018-09-13T16:28:57.979Z,24.90
2018-09-13T17:41:35.682Z,24.92
2018-09-13T17:46:39.788Z,24.84
2018-09-13T17:51:43.117Z,24.87
2018-09-13T17:56:46.406Z,24.88
2018-09-13T18:01:50.182Z,24.84
2018-09-13T18:06:53.586Z,24.86
2018-09-13T18:11:56.871Z,24.91
2018-09-13T18:17:00.193Z,24.96
2018-09-13T18:22:03.514Z,24.91
2018-09-13T19:17:47.515Z,25.03
2018-09-13T19:22:50.970Z,24.99
2018-09-13T19:27:54.331Z,24.91
2018-09-13T19:32:57.786Z,24.92
2018-09-13T19:38:01.007Z,24.85
2018-09-13T19:43:04.311Z,24.92
2018-09-13T19:48:07.603Z,24.91
2018-09-13T19:53:10.895Z,24.83
2018-09-13T19:58:14.195Z,24.85
2018-09-13T20:03:17.479Z,24.87
2018-09-13T20:08:20.780Z,24.83
2018-09-13T20:41:34.598Z,25.11
2018-09-13T20:46:38.634Z,24.94
2018-09-13T20:51:42.672Z,24.90
2018-09-13T20:56:46.313Z,24.91
2018-09-13T21:01:50.298Z,24.95
2018-09-13T21:06:53.877Z,24.96
2018-09-13T21:11:57.474Z,24.95
2018-09-13T21:17:00.840Z,25.01
2018-09-13T21:22:04.898Z,24.99
2018-09-13T21:27:08.217Z,24.96
2018-09-13T21:32:11.519Z,25.04
2018-09-13T21:37:14.799Z,25.02
2018-09-13T21:42:18.114Z,25.03
2018-09-13T21:47:21.591Z,25.02
2018-09-13T21:52:24.925Z,24.99
2018-09-13T21:57:28.206Z,24.92
2018-09-13T22:02:31.494Z,24.94
2018-09-13T22:07:35.212Z,24.96
2018-09-13T22:12:38.638Z,24.84
2018-09-13T22:17:42.118Z,24.87
2018-09-13T22:22:45.456Z,24.85
2018-09-13T22:27:48.738Z,24.82
2018-09-13T22:32:52.074Z,24.83
2018-09-13T22:37:56.347Z,24.79
2018-09-13T22:43:00.355Z,24.81
2018-09-13T22:48:04.581Z,24.78
2018-09-13T22:53:08.756Z,24.74
2018-09-13T22:58:12.785Z,24.74
2018-09-13T23:03:16.091Z,24.73
2018-09-13T23:08:19.378Z,24.72
2018-09-13T23:13:22.874Z,24.70
2018-09-13T23:18:26.202Z,24.69
2018-09-13T23:23:29.482Z,24.68
2018-09-13T23:28:32.758Z,24.69
2018-09-13T23:33:36.042Z,24.67
2018-09-13T23:38:39.323Z,24.66
2018-09-13T23:43:42.634Z,24.67
2018-09-13T23:48:45.930Z,24.64
2018-09-13T23:53:49.207Z,24.62
2018-09-13T23:58:52.486Z,24.62
